Aérodrome :
LOGIN :

S'inscrire | Disclaimer

   EN    FR    IT 

 










Légende :    VFR   VFR Marginal   IFR   IFR Intensif   IFR Très Intensif
Visi : 
Plafond : 
>= 8 km
>= 3000ft
5 à 8 km
1000 à 3000 ft
1500m à 5 km
500 à 1000 ft
800 à 1500m
200 à 500 ft
< 800m
< 200 ft
Symboles :   Orages  Brouillard  Fortes neiges  Fortes précipitations  Vent > 20 kt
SIGMETs :   Divers  Orages  Givrage  Turbulence  Onde Orograph.  Cendres Volcan.






- Altitude de l'aérodrome : 265 ft


ETSH - Holzdorf AB

DERNIER METAR :
  • 030720Z 03002KT 9999 FEW020 BKN060 18/12 Q1014 BLU BLU

METARs EXPIRÉS :
  • 030620Z 06002KT 9999 FEW020 BKN060 16/13 Q1014 BLU BLU
  • 030520Z 04001KT 9999 FEW020 SCT035 BKN060 13/12 Q1014 BLU BLU

TAF TAF ETSH
Valide du 03 à 08h jusqu'au 03 à 17h UTC


030725Z 0308/0317 25005KT 9999 NSW FEW020 BKN060
TEMPO 0311/0317 26010KT 8000 -SHRA SCT015 BKN025TCU
PROB30 0313/0317 27015G25KT 3500 TSRA SCT010 BKN020CB



MET'MAP, la Météo Aéronautique d'un coup d'oeil ! - Copyright ORBIFLY Décembre 2007 - Disclaimer

ORBIFLY MET'MAP TEAM :

Programmation & Développement : Alexandra Zaïnal
Sur une idée originale de : Baudouin d'Aumeries
Assistance à la programmation : Marc-Olivier Méhu
Soutien technique & logistique : Manuel Goepfert

Contact : metmap@orbifly.com




SOURCES & CREDITS :

   NOAA